sim
Sign-in with your pilot id or email,
or register
Callsign
Passwort

Schedule Details

Flight Number: OEO6634
Departure: Dubai International Airport (OMDB) at 04:30
Arrival: Mumbai Chhatrapati Shivaji International Airport (VABB) at 07:45

Weather Information
Getting current METAR information for OMDB 191700Z 05008KT 010V080 CAVOK 37/22 Q1003 NOSIG
Getting current METAR information for VABB 191730Z 24007KT 3500 HZ SCT020 28/25 Q1010 NOSIG

Schedule Frequency

Route Map